Time;durP1;ratioP1;P1;durP2;ratioP2;P2;SDS_P1;SDS_P2;PMS_P1;PMS_P2;Temp;Humidity;BMP_temperature;BMP_pressure;BME280_temperature;BME280_humidity;BME280_pressure;Samples;Min_cycle;Max_cycle;Signal;HPM_P1;HPM_P2
2023/06/18 00:01:47;;;;;;;1.98;1.10;;;;;;;19.52;72.67;98904.84;5071656;28;20405;-73
2023/06/18 00:04:12;;;;;;;2.17;1.52;;;;;;;19.53;72.61;98906.50;5071672;28;20023;-74
2023/06/18 00:06:37;;;;;;;4.55;1.63;;;;;;;19.02;72.81;98833.63;5071813;28;20498;-73
2023/06/18 00:09:03;;;;;;;2.30;1.50;;;;;;;19.20;72.67;98862.72;5071998;28;20024;-75
2023/06/18 00:11:28;;;;;;;3.05;1.60;;;;;;;19.05;72.48;98828.56;5071836;28;20025;-75
2023/06/18 00:13:54;;;;;;;4.65;1.42;;;;;;;19.01;72.47;98821.31;5071831;28;20023;-74
2023/06/18 00:16:19;;;;;;;3.92;1.50;;;;;;;19.50;72.45;98897.06;5071818;28;20099;-73
2023/06/18 00:18:44;;;;;;;6.50;1.50;;;;;;;19.12;72.06;98835.59;5071740;28;20413;-74
2023/06/18 00:21:11;;;;;;;5.05;2.10;;;;;;;19.34;71.95;98879.22;5071275;28;20117;-73
2023/06/18 00:23:37;;;;;;;4.20;1.60;;;;;;;19.36;72.03;98879.78;5071618;28;20081;-74
2023/06/18 00:26:03;;;;;;;3.40;1.60;;;;;;;19.42;71.98;98899.41;5071687;28;20028;-73
2023/06/18 00:28:31;;;;;;;6.35;1.83;;;;;;;19.28;72.24;98893.59;5071536;28;20024;-74
2023/06/18 00:30:56;;;;;;;4.57;1.70;;;;;;;19.03;71.92;98856.63;5071593;28;20019;-73
2023/06/18 00:33:23;;;;;;;5.38;1.92;;;;;;;19.01;72.01;98858.75;5073329;28;20028;-75
2023/06/18 00:35:57;;;;;;;2.38;1.52;;;;;;;19.47;72.03;98929.72;5072800;28;20021;-74
2023/06/18 00:38:33;;;;;;;4.65;1.95;;;;;;;18.89;71.84;98839.34;5071325;28;20120;-74
2023/06/18 00:40:59;;;;;;;7.70;1.92;;;;;;;18.94;71.78;98850.91;5071290;28;20100;-74
2023/06/18 00:43:27;;;;;;;4.72;2.00;;;;;;;19.07;71.59;98862.28;5071480;28;20039;-74
2023/06/18 00:45:54;;;;;;;5.63;1.63;;;;;;;19.18;71.58;98880.91;5071658;28;20103;-76
2023/06/18 00:48:20;;;;;;;4.85;2.10;;;;;;;19.17;71.69;98873.13;5071230;28;20024;-74
2023/06/18 00:50:46;;;;;;;4.75;1.95;;;;;;;19.38;71.74;98911.66;5071398;28;20092;-76
2023/06/18 00:53:13;;;;;;;4.70;1.90;;;;;;;19.49;71.76;98932.13;5071215;28;20047;-75
2023/06/18 00:55:39;;;;;;;5.75;2.20;;;;;;;19.42;71.68;98916.28;5071248;28;20025;-76
2023/06/18 00:58:05;;;;;;;4.95;2.25;;;;;;;18.94;71.65;98844.75;5071194;28;20428;-75
2023/06/18 01:00:34;;;;;;;5.93;2.28;;;;;;;19.21;71.46;98892.97;5071318;28;20035;-76
2023/06/18 01:03:02;;;;;;;4.20;1.90;;;;;;;19.16;71.60;98879.53;5071329;28;20093;-76
2023/06/18 01:05:31;;;;;;;7.30;2.75;;;;;;;19.40;71.79;98923.75;5069900;28;20497;-76
2023/06/18 01:07:59;;;;;;;5.78;2.40;;;;;;;19.32;71.65;98935.69;5071205;28;20028;-75
2023/06/18 01:10:29;;;;;;;6.28;2.75;;;;;;;19.33;72.07;98941.88;5071343;28;20028;-75
2023/06/18 01:12:58;;;;;;;7.87;2.63;;;;;;;18.96;72.23;98902.31;5071197;28;20013;-74
2023/06/18 01:15:26;;;;;;;6.05;3.00;;;;;;;19.31;72.28;98944.75;5071218;28;20557;-74
2023/06/18 01:17:56;;;;;;;7.03;3.35;;;;;;;19.33;72.27;98952.56;5071064;28;20052;-76
2023/06/18 01:20:24;;;;;;;6.03;3.28;;;;;;;19.31;72.45;98954.66;5070958;28;20020;-76
2023/06/18 01:22:59;;;;;;;7.53;3.40;;;;;;;19.10;72.27;98915.31;5070831;28;20033;-75
2023/06/18 01:25:29;;;;;;;5.45;3.00;;;;;;;18.80;72.37;98884.44;5070780;28;20108;-75
2023/06/18 01:27:56;;;;;;;8.93;3.40;;;;;;;18.77;72.47;98884.94;5070998;28;20031;-74
2023/06/18 01:30:22;;;;;;;5.22;3.28;;;;;;;19.21;72.49;98949.19;5071084;28;20031;-76
2023/06/18 01:32:48;;;;;;;9.20;3.47;;;;;;;18.90;72.44;98902.50;5069984;28;20066;-77
2023/06/18 01:35:16;;;;;;;6.25;2.83;;;;;;;18.81;72.32;98891.41;5074510;28;20024;-75
2023/06/18 01:38:09;;;;;;;6.15;2.92;;;;;;;19.31;72.27;98973.38;5074786;28;20075;-76
2023/06/18 01:40:37;;;;;;;7.88;3.10;;;;;;;19.24;72.38;98968.22;5075010;28;20475;-75
2023/06/18 01:43:31;;;;;;;3.65;2.83;;;;;;;19.22;72.34;98977.56;5073466;28;20025;-75
2023/06/18 01:46:07;;;;;;;7.70;2.83;;;;;;;19.26;72.27;98987.53;5074614;28;20409;-72
2023/06/18 01:49:02;;;;;;;3.80;2.58;;;;;;;19.27;72.27;98982.97;5074214;28;20175;-76
2023/06/18 01:51:30;;;;;;;9.10;2.70;;;;;;;18.97;72.28;98946.72;5074283;28;20020;-75
2023/06/18 01:53:57;;;;;;;3.25;2.55;;;;;;;19.22;72.32;98985.59;5074288;28;20020;-75
2023/06/18 01:56:23;;;;;;;5.32;2.85;;;;;;;18.98;72.31;98943.00;5074158;28;20030;-76
2023/06/18 01:58:50;;;;;;;12.77;3.50;;;;;;;19.08;72.34;98957.56;5073887;28;20119;-75
2023/06/18 02:01:15;;;;;;;7.05;3.08;;;;;;;19.35;72.13;98995.97;5074243;28;20028;-76
2023/06/18 02:03:41;;;;;;;5.70;3.05;;;;;;;19.01;72.16;98947.84;5074472;28;20028;-77
2023/06/18 02:06:07;;;;;;;6.25;3.20;;;;;;;19.32;72.05;98999.09;5074508;28;20032;-76
2023/06/18 02:08:33;;;;;;;9.88;3.03;;;;;;;19.16;72.04;98978.53;5074328;28;20463;-75
2023/06/18 02:10:59;;;;;;;7.45;3.40;;;;;;;19.22;72.08;98989.06;5074259;28;20027;-76
2023/06/18 02:13:24;;;;;;;7.75;3.40;;;;;;;19.32;72.17;99009.81;5074064;28;20099;-75
2023/06/18 02:15:49;;;;;;;12.00;3.20;;;;;;;19.31;71.94;99006.31;5074091;28;20024;-77
2023/06/18 02:18:15;;;;;;;10.55;3.88;;;;;;;18.93;72.12;98953.63;5073760;28;20024;-77
2023/06/18 02:20:41;;;;;;;6.53;2.63;;;;;;;18.81;72.18;98942.22;5073575;28;20019;-73
2023/06/18 02:23:08;;;;;;;8.85;3.33;;;;;;;18.87;72.44;98973.34;5073643;28;20024;-75
2023/06/18 02:25:33;;;;;;;5.18;2.90;;;;;;;18.76;72.35;98947.50;5073608;28;20405;-75
2023/06/18 02:28:00;;;;;;;7.43;3.38;;;;;;;19.23;72.32;99022.81;5073601;28;20108;-73
2023/06/18 02:30:29;;;;;;;7.18;2.88;;;;;;;19.22;72.43;99018.50;5073425;28;20028;-73
2023/06/18 02:32:55;;;;;;;6.00;3.15;;;;;;;19.04;72.36;98997.38;5073610;28;20035;-76
2023/06/18 02:35:20;;;;;;;6.28;3.58;;;;;;;18.75;72.41;98959.25;5073514;28;20033;-77
2023/06/18 02:37:46;;;;;;;9.65;3.67;;;;;;;19.04;72.29;99002.75;5073661;28;20481;-72
2023/06/18 02:40:14;;;;;;;10.65;3.20;;;;;;;18.88;72.33;98977.63;5073727;28;20023;-76
2023/06/18 02:42:49;;;;;;;7.72;3.95;;;;;;;18.82;72.25;98973.25;5073409;28;20029;-76
2023/06/18 02:45:19;;;;;;;7.47;3.55;;;;;;;19.21;72.13;99029.47;5073266;28;20055;-76
2023/06/18 02:47:45;;;;;;;9.52;3.88;;;;;;;19.10;72.20;99015.13;5073398;28;20085;-73
2023/06/18 02:50:12;;;;;;;13.18;4.07;;;;;;;19.13;72.27;99027.22;5073383;28;20029;-77
2023/06/18 02:52:38;;;;;;;8.88;3.75;;;;;;;18.83;72.26;98988.25;5072132;28;20021;-74
2023/06/18 02:55:05;;;;;;;8.38;4.43;;;;;;;19.10;72.05;99036.53;5073271;28;20024;-75
2023/06/18 02:57:31;;;;;;;7.15;4.40;;;;;;;19.16;71.93;99037.41;5073188;28;20045;-74
2023/06/18 02:59:56;;;;;;;6.53;3.75;;;;;;;18.78;71.84;98990.84;5073269;28;20028;-76
2023/06/18 03:02:22;;;;;;;6.40;4.00;;;;;;;19.22;71.39;99042.59;5073128;28;20058;-76
2023/06/18 03:04:47;;;;;;;7.03;4.22;;;;;;;18.87;71.63;99001.94;5073057;28;20481;-76
2023/06/18 03:07:13;;;;;;;6.43;4.55;;;;;;;18.87;71.26;99005.44;5073101;28;20511;-75
2023/06/18 03:09:38;;;;;;;6.38;4.25;;;;;;;19.05;70.97;99025.75;5073322;28;20107;-74
2023/06/18 03:12:04;;;;;;;9.85;4.05;;;;;;;19.07;70.84;99028.19;5072873;28;20017;-76
2023/06/18 03:14:29;;;;;;;6.85;4.45;;;;;;;18.94;70.38;99000.72;5073214;28;20025;-75
2023/06/18 03:16:56;;;;;;;9.02;4.35;;;;;;;19.26;70.25;99038.38;5073070;28;20416;-75
2023/06/18 03:19:22;;;;;;;7.90;4.10;;;;;;;19.29;70.20;99047.78;5072901;28;20562;-76
2023/06/18 03:21:48;;;;;;;8.15;4.00;;;;;;;19.37;70.22;99063.44;5071485;28;20021;-73
2023/06/18 03:24:14;;;;;;;6.25;3.80;;;;;;;18.96;70.15;99011.19;5071329;28;20025;-74
2023/06/18 03:26:41;;;;;;;10.25;4.60;;;;;;;19.32;69.88;99061.50;5071403;28;20020;-73
2023/06/18 03:29:07;;;;;;;6.68;4.15;;;;;;;19.33;70.04;99062.31;5071202;28;20440;-76
2023/06/18 03:31:33;;;;;;;4.75;3.97;;;;;;;19.33;69.83;99056.97;5072475;28;20082;-76
2023/06/18 03:34:01;;;;;;;5.63;4.00;;;;;;;19.26;69.88;99051.75;5072498;28;20028;-76
2023/06/18 03:36:28;;;;;;;6.05;4.20;;;;;;;19.31;69.94;99059.84;5072392;28;20028;-74
2023/06/18 03:38:54;;;;;;;4.68;4.28;;;;;;;18.92;69.60;98988.66;5072385;28;20103;-75
2023/06/18 03:41:21;;;;;;;6.05;3.78;;;;;;;19.40;69.64;99065.63;5072354;28;20543;-77
2023/06/18 03:43:46;;;;;;;7.60;4.30;;;;;;;18.97;69.46;98994.06;5072288;28;20039;-75
2023/06/18 03:46:12;;;;;;;5.82;3.83;;;;;;;19.18;69.20;99027.28;5072131;28;20421;-76
2023/06/18 03:48:38;;;;;;;5.75;3.90;;;;;;;19.25;69.25;99035.94;5072087;28;20085;-73
2023/06/18 03:51:04;;;;;;;5.38;4.43;;;;;;;19.51;68.89;99056.69;5072126;28;20096;-75
2023/06/18 03:53:30;;;;;;;5.82;3.63;;;;;;;19.52;68.79;99054.81;5070880;28;20485;-75
2023/06/18 03:55:55;;;;;;;7.00;4.60;;;;;;;19.62;68.59;99069.16;5070435;28;20599;-73
2023/06/18 03:58:21;;;;;;;5.38;3.78;;;;;;;19.39;68.40;99031.88;5071501;28;20052;-73
2023/06/18 04:00:47;;;;;;;5.97;4.38;;;;;;;19.43;68.30;99035.69;5071586;28;20025;-75
2023/06/18 04:03:12;;;;;;;8.43;4.35;;;;;;;19.37;68.03;99031.31;5071915;28;20033;-76
2023/06/18 04:05:38;;;;;;;5.70;4.45;;;;;;;19.65;68.04;99082.06;5071988;28;20032;-76
2023/06/18 04:08:04;;;;;;;6.22;4.32;;;;;;;19.60;67.86;99087.34;5071752;28;20028;-76
2023/06/18 04:10:30;;;;;;;6.43;3.85;;;;;;;19.73;67.63;99082.69;5070452;28;20035;-76
2023/06/18 04:12:55;;;;;;;7.80;3.97;;;;;;;19.79;67.60;99087.06;5071787;28;20425;-75
2023/06/18 04:15:21;;;;;;;4.82;3.90;;;;;;;19.83;67.09;99091.66;5071750;28;20029;-76
2023/06/18 04:17:46;;;;;;;6.05;3.58;;;;;;;19.47;66.93;99030.66;5071537;28;20024;-75
2023/06/18 04:20:12;;;;;;;7.35;4.10;;;;;;;19.43;66.87;99016.94;5070240;28;20063;-75
2023/06/18 04:22:37;;;;;;;7.05;3.83;;;;;;;19.93;66.85;99089.09;5071593;28;20028;-76
2023/06/18 04:25:03;;;;;;;4.93;3.50;;;;;;;19.68;66.47;99041.41;5071618;28;20104;-76
2023/06/18 04:27:28;;;;;;;5.82;3.90;;;;;;;19.92;66.34;99076.78;5071513;28;20554;-75
2023/06/18 04:29:54;;;;;;;5.70;4.35;;;;;;;19.91;66.34;99082.38;5071491;28;20481;-74
2023/06/18 04:32:19;;;;;;;6.40;4.38;;;;;;;19.99;66.35;99087.28;5071477;28;20021;-74
2023/06/18 04:34:44;;;;;;;5.90;3.95;;;;;;;19.89;66.23;99065.75;5071651;28;20048;-76
2023/06/18 04:37:10;;;;;;;5.97;4.40;;;;;;;20.02;66.11;99094.84;5071355;28;20104;-75
2023/06/18 04:39:35;;;;;;;5.97;4.65;;;;;;;20.03;66.13;99093.78;5070205;28;20024;-75
2023/06/18 04:42:00;;;;;;;6.90;4.15;;;;;;;19.55;66.11;99024.88;5071424;28;20028;-75
2023/06/18 04:44:26;;;;;;;8.48;4.68;;;;;;;19.97;66.01;99111.66;5070050;28;20116;-76
2023/06/18 04:46:51;;;;;;;6.10;4.50;;;;;;;19.72;65.88;99056.97;5071463;28;20031;-75
2023/06/18 04:49:17;;;;;;;8.95;4.18;;;;;;;20.07;65.87;99097.59;5071176;28;20032;-76
2023/06/18 04:51:43;;;;;;;5.68;4.50;;;;;;;19.67;65.94;99041.63;5071312;28;20024;-75
2023/06/18 04:54:09;;;;;;;5.63;4.38;;;;;;;20.10;65.74;99102.47;5071435;28;20024;-73
2023/06/18 04:56:35;;;;;;;4.63;4.18;;;;;;;19.86;65.82;99063.56;5071389;28;20568;-75
2023/06/18 04:59:00;;;;;;;6.30;4.78;;;;;;;19.90;65.66;99062.00;5069966;28;20045;-75
2023/06/18 05:01:26;;;;;;;5.90;4.05;;;;;;;19.88;65.62;99056.09;5071202;28;20025;-75
2023/06/18 05:03:51;;;;;;;6.03;4.70;;;;;;;20.10;65.50;99099.78;5071494;28;20086;-76
2023/06/18 05:06:16;;;;;;;7.28;4.93;;;;;;;20.08;65.51;99077.78;5071244;28;20415;-74
2023/06/18 05:08:42;;;;;;;5.30;4.78;;;;;;;20.19;65.33;99100.97;5071056;28;20432;-75
2023/06/18 05:11:07;;;;;;;5.80;4.32;;;;;;;19.72;65.40;99020.28;5075422;28;20089;-76
2023/06/18 05:13:33;;;;;;;10.25;5.03;;;;;;;20.36;65.47;99108.09;5073697;28;20032;-75
2023/06/18 05:16:00;;;;;;;5.45;4.50;;;;;;;20.35;65.46;99120.69;5075003;28;20035;-77
2023/06/18 05:18:25;;;;;;;5.72;5.20;;;;;;;20.25;64.96;99086.56;5075150;28;20048;-76
2023/06/18 05:20:50;;;;;;;5.80;5.20;;;;;;;20.27;64.87;99097.84;5075029;28;20485;-76
2023/06/18 05:23:16;;;;;;;5.65;5.05;;;;;;;20.14;64.92;99068.75;5073628;28;20095;-73
2023/06/18 05:25:41;;;;;;;7.78;5.00;;;;;;;20.41;64.73;99097.47;5075042;28;20024;-75
2023/06/18 05:28:07;;;;;;;5.85;5.13;;;;;;;20.08;64.80;99050.97;5074792;28;20024;-73
2023/06/18 05:30:32;;;;;;;5.70;5.20;;;;;;;20.30;64.17;99086.59;5074701;28;20043;-74
2023/06/18 05:32:57;;;;;;;7.97;5.13;;;;;;;20.11;64.26;99042.44;5074794;28;20021;-76
2023/06/18 05:35:23;;;;;;;7.97;5.57;;;;;;;20.57;64.29;99123.38;5074598;28;20468;-76
2023/06/18 05:37:49;;;;;;;8.68;5.43;;;;;;;20.69;64.04;99133.94;5073544;28;20452;-75
2023/06/18 05:40:14;;;;;;;5.78;4.80;;;;;;;20.50;64.39;99109.34;5074990;28;20055;-75
2023/06/18 05:42:40;;;;;;;6.82;5.20;;;;;;;20.29;64.14;99086.84;5074676;28;20054;-74
2023/06/18 05:45:06;;;;;;;6.47;5.68;;;;;;;20.54;64.04;99107.78;5074732;28;20038;-75
2023/06/18 05:47:32;;;;;;;6.28;5.00;;;;;;;20.74;64.46;99153.59;5074908;28;20020;-76
2023/06/18 05:49:57;;;;;;;7.68;5.22;;;;;;;20.16;64.56;99044.38;5074514;28;20463;-75
2023/06/18 05:52:23;;;;;;;5.72;5.22;;;;;;;20.84;64.44;99140.28;5074738;28;20539;-76
2023/06/18 05:54:48;;;;;;;7.35;5.72;;;;;;;20.59;64.50;99100.59;5074331;28;20024;-75
2023/06/18 05:57:13;;;;;;;7.82;5.32;;;;;;;20.70;64.19;99106.88;5074235;28;20051;-75
2023/06/18 05:59:39;;;;;;;6.50;5.90;;;;;;;20.99;64.25;99146.84;5074346;28;20032;-74
2023/06/18 06:02:05;;;;;;;5.88;5.32;;;;;;;20.87;64.29;99125.56;5074486;28;20078;-75
2023/06/18 06:04:31;;;;;;;6.28;5.68;;;;;;;20.87;64.00;99130.91;5074818;28;20035;-74
2023/06/18 06:06:56;;;;;;;8.20;5.65;;;;;;;21.05;63.95;99149.34;5075011;28;20035;-76
2023/06/18 06:09:22;;;;;;;6.15;5.57;;;;;;;21.32;64.00;99167.28;5074770;28;20039;-74
2023/06/18 06:11:48;;;;;;;8.00;6.13;;;;;;;21.32;63.85;99145.81;5075204;28;20094;-75
2023/06/18 06:14:13;;;;;;;7.47;6.05;;;;;;;21.43;63.97;99167.09;5074774;28;20024;-75
2023/06/18 06:16:39;;;;;;;7.50;5.93;;;;;;;21.35;64.38;99154.16;5072702;28;20024;-74
2023/06/18 06:19:04;;;;;;;8.93;6.60;;;;;;;21.26;64.47;99136.91;5073229;28;20029;-74
2023/06/18 06:21:30;;;;;;;7.45;6.18;;;;;;;21.19;64.78;99125.53;5072449;28;20036;-76
2023/06/18 06:23:56;;;;;;;6.80;6.10;;;;;;;21.46;64.95;99174.66;5072436;28;20519;-74
2023/06/18 06:26:22;;;;;;;7.25;6.53;;;;;;;21.14;65.33;99134.38;5073773;28;20111;-75
2023/06/18 06:28:47;;;;;;;9.70;7.18;;;;;;;20.89;65.19;99096.59;5073851;28;20029;-74
2023/06/18 06:31:13;;;;;;;9.75;7.60;;;;;;;21.15;65.67;99149.41;5072713;28;20059;-75
2023/06/18 06:33:38;;;;;;;7.75;7.00;;;;;;;21.13;65.54;99137.31;5073876;28;20421;-77
2023/06/18 06:36:04;;;;;;;8.05;6.30;;;;;;;21.46;65.61;99177.34;5076538;28;20093;-76
2023/06/18 06:38:29;;;;;;;12.05;6.63;;;;;;;20.78;65.43;99066.16;5073753;28;20171;-73
2023/06/18 06:40:54;;;;;;;9.07;7.13;;;;;;;21.38;65.38;99150.97;5072118;28;20025;-74
2023/06/18 06:43:20;;;;;;;8.32;7.43;;;;;;;21.14;65.35;99112.91;5073508;28;20025;-77
2023/06/18 06:45:45;;;;;;;13.23;8.35;;;;;;;21.16;65.24;99110.75;5073435;28;20437;-75
2023/06/18 06:48:11;;;;;;;9.32;7.25;;;;;;;21.64;65.02;99176.13;5073470;28;20024;-74
2023/06/18 06:50:37;;;;;;;9.45;7.82;;;;;;;21.51;64.87;99147.00;5073531;28;20027;-76
2023/06/18 06:53:02;;;;;;;7.95;7.25;;;;;;;21.73;64.80;99179.97;5073421;28;20020;-77
2023/06/18 06:55:27;;;;;;;8.80;7.25;;;;;;;21.40;64.69;99108.53;5073267;28;20108;-73
2023/06/18 06:57:53;;;;;;;8.70;7.40;;;;;;;21.63;64.84;99128.03;5071857;28;20052;-75
2023/06/18 07:00:18;;;;;;;7.25;6.55;;;;;;;21.99;64.74;99172.84;5073283;28;20044;-74
2023/06/18 07:02:43;;;;;;;7.25;6.35;;;;;;;22.05;64.65;99189.84;5072970;28;20421;-75
2023/06/18 07:05:09;;;;;;;7.80;5.82;;;;;;;22.14;63.71;99186.38;5071686;28;20112;-75
2023/06/18 07:07:35;;;;;;;7.15;6.47;;;;;;;22.11;63.44;99178.84;5072971;28;20485;-74
2023/06/18 07:10:02;;;;;;;6.40;5.80;;;;;;;22.18;63.48;99184.78;5071687;28;20382;-75
2023/06/18 07:12:27;;;;;;;10.63;5.80;;;;;;;22.08;62.98;99168.63;5072920;28;20027;-75
2023/06/18 07:14:52;;;;;;;5.85;5.25;;;;;;;22.22;62.96;99184.25;5072999;28;20029;-76
2023/06/18 07:17:18;;;;;;;6.38;5.72;;;;;;;21.76;62.92;99130.25;5073040;28;20103;-76
2023/06/18 07:19:43;;;;;;;7.43;6.05;;;;;;;22.02;62.76;99166.13;5071462;28;20025;-76
2023/06/18 07:22:09;;;;;;;7.32;5.88;;;;;;;21.85;62.43;99159.06;5072707;28;20021;-74
2023/06/18 07:24:34;;;;;;;5.55;5.15;;;;;;;22.15;62.57;99203.31;5072631;28;20103;-74
2023/06/18 07:27:00;;;;;;;7.53;6.20;;;;;;;22.14;62.54;99204.41;5072598;28;20470;-75
2023/06/18 07:29:25;;;;;;;6.38;5.88;;;;;;;22.14;62.61;99202.53;5071337;28;20021;-74
2023/06/18 07:31:51;;;;;;;5.93;5.32;;;;;;;22.10;62.58;99187.97;5070288;28;20405;-76
2023/06/18 07:34:16;;;;;;;8.00;5.47;;;;;;;22.08;62.36;99175.88;5072411;28;20486;-75
2023/06/18 07:36:42;;;;;;;6.75;4.88;;;;;;;22.30;62.10;99219.56;5072360;28;20016;-75
2023/06/18 07:39:08;;;;;;;5.97;5.35;;;;;;;22.21;61.87;99186.16;5071176;28;20016;-74
2023/06/18 07:41:34;;;;;;;5.90;4.47;;;;;;;22.29;61.66;99200.97;5072308;28;20472;-75
2023/06/18 07:44:01;;;;;;;4.93;4.38;;;;;;;22.40;60.81;99205.34;5072287;28;20035;-76
2023/06/18 07:46:26;;;;;;;5.85;4.40;;;;;;;22.12;60.55;99145.50;5072291;28;20032;-76
2023/06/18 07:48:51;;;;;;;6.70;4.50;;;;;;;22.55;60.51;99200.03;5072108;28;20020;-76
2023/06/18 07:51:17;;;;;;;4.78;4.30;;;;;;;22.27;60.48;99146.63;5072111;28;20507;-76
2023/06/18 07:53:42;;;;;;;4.57;4.18;;;;;;;22.64;60.12;99184.97;5072104;28;20468;-76
2023/06/18 07:56:08;;;;;;;5.00;4.60;;;;;;;22.85;60.16;99201.19;5072432;28;20048;-76
2023/06/18 07:58:33;;;;;;;4.40;4.00;;;;;;;22.48;59.62;99151.84;5071863;28;20501;-76
2023/06/18 08:00:58;;;;;;;5.53;4.25;;;;;;;22.87;59.61;99209.81;5071848;28;20024;-75
2023/06/18 08:03:24;;;;;;;5.57;4.47;;;;;;;22.79;58.85;99198.47;5072144;28;20025;-75
2023/06/18 08:05:49;;;;;;;4.70;4.30;;;;;;;22.62;59.27;99180.94;5071904;28;20502;-76
2023/06/18 08:08:15;;;;;;;5.68;4.07;;;;;;;22.74;59.33;99201.16;5070606;28;20059;-75
2023/06/18 08:10:40;;;;;;;5.07;4.10;;;;;;;22.39;58.84;99131.91;5071747;28;20043;-76
2023/06/18 08:13:06;;;;;;;5.30;3.55;;;;;;;22.96;59.05;99209.03;5071745;28;20020;-74
2023/06/18 08:15:31;;;;;;;6.85;4.30;;;;;;;22.68;58.55;99148.38;5071765;28;20454;-76
2023/06/18 08:17:56;;;;;;;4.00;3.70;;;;;;;22.76;58.54;99149.75;5070420;28;20024;-76
2023/06/18 08:20:22;;;;;;;4.43;3.70;;;;;;;23.24;58.38;99194.25;5071700;28;20028;-75
2023/06/18 08:22:47;;;;;;;5.93;4.07;;;;;;;23.38;57.84;99202.63;5071547;28;20405;-76
2023/06/18 08:25:13;;;;;;;4.50;4.10;;;;;;;22.94;57.45;99153.81;5071704;28;20035;-77
2023/06/18 08:27:38;;;;;;;4.18;3.58;;;;;;;22.89;57.39;99156.50;5071670;28;20409;-75
2023/06/18 08:30:04;;;;;;;3.88;3.53;;;;;;;22.94;56.91;99154.63;5071567;28;20028;-75
2023/06/18 08:32:30;;;;;;;4.35;4.03;;;;;;;23.11;56.79;99165.19;5071471;28;20040;-76
2023/06/18 08:34:55;;;;;;;5.60;3.97;;;;;;;23.47;56.28;99206.38;5071388;28;20036;-75
2023/06/18 08:37:21;;;;;;;4.90;3.90;;;;;;;23.50;56.50;99199.63;5071336;28;20017;-76
2023/06/18 08:39:46;;;;;;;3.95;3.20;;;;;;;23.44;56.37;99185.38;5070004;28;20024;-75
2023/06/18 08:42:17;;;;;;;3.95;3.28;;;;;;;23.73;55.73;99223.38;5070922;28;20056;-76
2023/06/18 08:44:45;;;;;;;3.75;3.45;;;;;;;23.61;55.46;99193.19;5071577;28;20513;-75
2023/06/18 08:47:11;;;;;;;4.97;3.08;;;;;;;23.42;55.12;99150.59;5071346;28;20036;-75
2023/06/18 08:49:41;;;;;;;3.58;3.00;;;;;;;23.56;54.34;99167.06;5070080;28;20081;-75
2023/06/18 08:52:08;;;;;;;4.28;3.10;;;;;;;23.89;54.19;99205.31;5069997;28;20386;-75
2023/06/18 08:54:36;;;;;;;3.50;3.20;;;;;;;24.07;54.23;99220.91;5071049;28;20055;-73
2023/06/18 08:57:16;;;;;;;3.80;3.33;;;;;;;23.99;53.94;99173.72;5069756;28;20056;-75
2023/06/18 08:59:43;;;;;;;3.60;3.30;;;;;;;24.24;53.75;99215.97;5071097;28;20067;-76
2023/06/18 09:02:10;;;;;;;3.40;3.13;;;;;;;24.26;53.64;99199.53;5071032;28;20059;-75
2023/06/18 09:04:37;;;;;;;4.10;3.65;;;;;;;24.03;53.62;99155.91;5069485;28;20074;-74
2023/06/18 09:07:03;;;;;;;6.80;4.22;;;;;;;24.13;53.57;99146.16;5070805;28;20161;-73
2023/06/18 09:09:29;;;;;;;4.38;3.97;;;;;;;24.37;53.18;99195.72;5070816;28;20536;-75
2023/06/18 09:11:55;;;;;;;4.85;3.95;;;;;;;24.52;52.69;99186.75;5070871;28;20036;-74
2023/06/18 09:14:21;;;;;;;4.95;4.10;;;;;;;24.52;52.36;99148.97;5072595;28;20047;-75
2023/06/18 09:16:47;;;;;;;7.75;4.38;;;;;;;25.07;51.81;99212.66;5074761;28;20497;-73
2023/06/18 09:19:13;;;;;;;4.40;3.63;;;;;;;25.27;51.89;99227.94;5071268;28;20032;-76
2023/06/18 09:21:40;;;;;;;4.30;3.88;;;;;;;25.35;51.50;99205.72;5069599;28;20032;-74
2023/06/18 09:24:08;;;;;;;5.75;3.38;;;;;;;25.56;51.10;99214.44;5070810;28;20029;-75
2023/06/18 09:26:34;;;;;;;5.40;3.90;;;;;;;25.33;50.50;99146.53;5070730;28;20025;-73
2023/06/18 09:29:07;;;;;;;3.90;3.20;;;;;;;25.83;49.22;99209.34;5070992;28;20162;-76
2023/06/18 09:31:34;;;;;;;4.07;3.40;;;;;;;25.73;49.86;99232.97;5070895;28;20087;-77
2023/06/18 09:34:20;;;;;;;6.53;3.60;;;;;;;25.96;49.38;99216.78;5070751;28;20063;-76
2023/06/18 09:36:48;;;;;;;5.25;3.85;;;;;;;26.05;49.07;99208.88;5070301;28;20040;-74
2023/06/18 09:39:17;;;;;;;4.47;3.90;;;;;;;26.04;48.96;99218.09;5070769;28;20463;-74
2023/06/18 09:41:44;;;;;;;3.60;3.22;;;;;;;26.27;48.38;99214.56;5070679;28;20179;-74
2023/06/18 09:44:11;;;;;;;5.00;3.30;;;;;;;26.41;48.41;99201.16;5070108;28;20078;-75
2023/06/18 09:46:36;;;;;;;5.05;3.65;;;;;;;26.59;48.38;99197.66;5072754;28;20118;-74
2023/06/18 09:49:02;;;;;;;4.10;3.78;;;;;;;26.72;48.26;99208.88;5058636;28;20025;-74
2023/06/18 09:51:27;;;;;;;5.95;3.92;;;;;;;26.39;48.45;99175.47;5050519;28;20024;-75
2023/06/18 09:53:58;;;;;;;4.20;3.80;;;;;;;26.40;47.95;99183.31;5067170;28;20395;-76
2023/06/18 09:56:23;;;;;;;4.18;3.78;;;;;;;26.52;48.18;99209.97;5074355;28;20028;-77
2023/06/18 09:58:50;;;;;;;3.97;3.67;;;;;;;26.01;47.87;99121.25;5074098;28;20051;-74
2023/06/18 10:01:18;;;;;;;3.78;3.47;;;;;;;26.58;47.33;99185.22;5073881;28;20534;-74
2023/06/18 10:03:45;;;;;;;7.35;3.47;;;;;;;26.89;47.38;99201.88;5074041;28;20024;-75
2023/06/18 10:06:18;;;;;;;3.92;3.60;;;;;;;26.98;46.70;99209.38;5074029;28;20017;-74
2023/06/18 10:08:45;;;;;;;5.70;3.10;;;;;;;27.06;46.40;99214.94;5072381;28;20125;-76
2023/06/18 10:11:12;;;;;;;4.13;3.05;;;;;;;27.26;45.68;99202.16;5073874;28;20078;-74
2023/06/18 10:13:52;;;;;;;3.20;2.90;;;;;;;26.98;45.14;99155.19;5073950;28;20048;-75
2023/06/18 10:16:20;;;;;;;5.10;2.72;;;;;;;27.55;44.59;99213.63;5073968;28;20162;-74
2023/06/18 10:18:45;;;;;;;3.22;2.92;;;;;;;27.58;44.58;99187.81;5073036;28;20190;-75
2023/06/18 10:21:11;;;;;;;4.55;3.15;;;;;;;27.84;44.40;99195.22;5073853;28;20099;-75
2023/06/18 10:23:38;;;;;;;3.00;2.70;;;;;;;28.03;43.53;99161.75;5073711;28;20028;-74
2023/06/18 10:26:04;;;;;;;6.03;3.20;;;;;;;28.57;43.81;99200.88;5072649;28;20064;-75
2023/06/18 10:28:30;;;;;;;4.78;3.05;;;;;;;28.73;42.57;99167.63;5072489;28;20040;-76
2023/06/18 10:30:57;;;;;;;3.47;2.78;;;;;;;28.87;42.20;99167.63;5073573;28;20020;-73
2023/06/18 10:33:22;;;;;;;3.80;2.53;;;;;;;29.17;41.69;99185.13;5074144;28;20036;-77
2023/06/18 10:35:49;;;;;;;3.22;2.80;;;;;;;28.81;41.15;99114.47;5072766;28;20040;-73
2023/06/18 10:38:15;;;;;;;4.05;2.50;;;;;;;28.69;41.01;99095.19;5070589;28;20043;-74
2023/06/18 10:40:42;;;;;;;4.47;2.72;;;;;;;29.28;40.66;99169.38;5073336;28;20413;-74
2023/06/18 10:43:09;;;;;;;3.58;3.22;;;;;;;28.68;41.42;99118.84;5071292;28;20492;-74
2023/06/18 10:45:35;;;;;;;3.03;2.72;;;;;;;28.98;41.63;99166.25;5072521;28;20024;-73
2023/06/18 10:48:28;;;;;;;3.88;3.00;;;;;;;29.26;40.94;99168.88;5072055;28;20099;-76
2023/06/18 10:51:17;;;;;;;3.40;3.10;;;;;;;29.30;40.89;99164.44;5065584;28;20040;-76
2023/06/18 10:53:46;;;;;;;3.10;2.90;;;;;;;29.28;40.83;99166.66;5073346;28;20154;-76
2023/06/18 10:56:15;;;;;;;4.25;3.08;;;;;;;29.07;39.51;99134.53;5071860;28;20086;-73
2023/06/18 10:58:42;;;;;;;4.03;2.40;;;;;;;29.38;40.02;99167.19;5073216;28;20053;-75
2023/06/18 11:01:23;;;;;;;4.25;2.47;;;;;;;29.49;39.51;99151.44;5073107;28;20114;-74
2023/06/18 11:04:01;;;;;;;4.68;2.70;;;;;;;29.38;40.29;99118.25;5073460;28;20023;-74
2023/06/18 11:06:29;;;;;;;3.70;2.92;;;;;;;29.64;39.55;99170.09;5073454;28;20024;-74
2023/06/18 11:08:55;;;;;;;4.82;3.17;;;;;;;29.65;39.78;99160.81;5071821;28;20051;-74
2023/06/18 11:11:24;;;;;;;3.45;3.00;;;;;;;29.30;39.83;99108.13;5071911;28;20044;-75
2023/06/18 11:13:55;;;;;;;6.00;3.40;;;;;;;29.40;39.78;99105.13;5072757;28;20031;-74
2023/06/18 11:16:22;;;;;;;4.75;3.25;;;;;;;30.00;39.41;99153.59;5072801;28;20028;-76
2023/06/18 11:18:49;;;;;;;3.67;3.22;;;;;;;30.22;38.79;99162.81;5072663;28;20567;-73
2023/06/18 11:21:17;;;;;;;3.58;2.50;;;;;;;29.98;37.79;99086.97;5072550;28;20166;-75
2023/06/18 11:23:43;;;;;;;5.18;4.07;;;;;;;30.38;38.23;99135.94;5072479;28;20497;-76
2023/06/18 11:26:16;;;;;;;4.10;3.17;;;;;;;30.45;37.75;99125.34;5072613;28;20032;-75
2023/06/18 11:28:42;;;;;;;5.03;3.35;;;;;;;30.36;37.76;99100.84;5072612;28;20029;-76
2023/06/18 11:31:08;;;;;;;7.05;4.20;;;;;;;30.16;38.15;99093.28;5072389;28;20035;-75
2023/06/18 11:33:33;;;;;;;3.72;3.42;;;;;;;30.56;38.37;99146.56;5072380;28;20028;-76